createdAt,value
2023-11-03T00:00:25.559Z,6.32
2023-11-03T00:01:27.811Z,6.28
2023-11-03T00:02:29.908Z,6.26
2023-11-03T00:03:32.083Z,6.25
2023-11-03T00:04:37.402Z,6.24
2023-11-03T00:05:39.672Z,6.22
2023-11-03T00:06:43.166Z,6.21
2023-11-03T00:07:45.291Z,6.20
2023-11-03T00:08:47.334Z,6.18
2023-11-03T00:09:49.476Z,6.17
2023-11-03T00:10:52.139Z,6.16
2023-11-03T00:11:54.232Z,6.15
2023-11-03T00:12:56.368Z,6.14
2023-11-03T00:13:58.495Z,6.14
2023-11-03T00:15:00.582Z,6.15
2023-11-03T00:16:04.102Z,6.14
2023-11-03T00:17:06.239Z,6.15
2023-11-03T00:18:08.257Z,6.13
2023-11-03T00:19:10.586Z,6.13
2023-11-03T00:20:14.494Z,6.13
2023-11-03T00:21:16.504Z,6.12
2023-11-03T00:22:18.749Z,6.11
2023-11-03T00:23:21.571Z,6.10
2023-11-03T00:24:23.693Z,6.09
2023-11-03T00:25:25.860Z,6.06
2023-11-03T00:26:28.075Z,6.08
2023-11-03T00:27:30.296Z,6.08
2023-11-03T00:28:32.535Z,6.07
2023-11-03T00:29:34.545Z,6.07
2023-11-03T00:30:36.922Z,6.10
2023-11-03T00:31:43.920Z,6.11
2023-11-03T00:32:46.164Z,6.11
2023-11-03T00:33:48.653Z,6.10
2023-11-03T00:34:50.870Z,6.09
2023-11-03T00:35:53.016Z,6.04
2023-11-03T00:36:55.351Z,6.01
2023-11-03T00:37:57.426Z,6.00
2023-11-03T00:38:59.461Z,5.99
2023-11-03T00:40:03.168Z,6.01
2023-11-03T00:41:05.601Z,6.05
2023-11-03T00:42:07.906Z,6.07
2023-11-03T00:43:10.030Z,6.09
2023-11-03T00:44:12.448Z,6.10
2023-11-03T00:45:15.128Z,6.12
2023-11-03T00:46:17.742Z,6.13
2023-11-03T00:47:19.851Z,6.15
2023-11-03T00:48:22.002Z,6.16
2023-11-03T00:49:24.268Z,6.15
2023-11-03T00:50:26.662Z,6.17
2023-11-03T00:51:28.856Z,6.18
2023-11-03T00:52:30.806Z,6.21
2023-11-03T00:53:32.908Z,6.23
2023-11-03T00:54:35.800Z,6.24
2023-11-03T00:55:37.894Z,6.23
2023-11-03T00:56:40.174Z,6.23
2023-11-03T00:57:42.252Z,6.22
2023-11-03T00:58:44.310Z,6.23
2023-11-03T00:59:46.393Z,6.23
2023-11-03T01:00:48.643Z,6.24
2023-11-03T01:01:50.917Z,6.24
2023-11-03T01:02:53.096Z,6.26
2023-11-03T01:03:55.318Z,6.27
2023-11-03T01:04:57.670Z,6.25
2023-11-03T01:05:59.827Z,6.25
2023-11-03T01:07:01.809Z,6.25
2023-11-03T01:08:04.306Z,6.24
2023-11-03T01:09:06.310Z,6.25
2023-11-03T01:10:09.565Z,6.24
2023-11-03T01:11:13.076Z,6.23
2023-11-03T01:12:15.332Z,6.24
2023-11-03T01:13:17.492Z,6.24
2023-11-03T01:14:19.482Z,6.24
2023-11-03T01:15:21.714Z,6.27
2023-11-03T01:16:24.002Z,6.27
2023-11-03T01:17:26.256Z,6.29
2023-11-03T01:18:28.409Z,6.31
2023-11-03T01:19:30.748Z,6.35
2023-11-03T01:20:33.917Z,6.36
2023-11-03T01:21:36.045Z,6.38
2023-11-03T01:22:38.191Z,6.40
2023-11-03T01:23:40.816Z,6.41
2023-11-03T01:24:43.057Z,6.45
2023-11-03T01:25:45.382Z,6.47
2023-11-03T01:26:47.702Z,6.47
2023-11-03T01:27:49.814Z,6.47
2023-11-03T01:28:54.961Z,6.49
2023-11-03T01:29:57.175Z,6.50
2023-11-03T01:30:59.321Z,6.52
2023-11-03T01:32:01.390Z,6.53
2023-11-03T01:33:03.604Z,6.51
2023-11-03T01:34:05.817Z,6.51
2023-11-03T01:35:08.695Z,6.53
2023-11-03T01:36:11.362Z,6.56
2023-11-03T01:37:13.631Z,6.56
2023-11-03T01:38:15.783Z,6.56
2023-11-03T01:39:17.835Z,6.57
2023-11-03T01:40:20.410Z,6.58
2023-11-03T01:41:22.444Z,6.60
2023-11-03T01:42:24.569Z,6.62
2023-11-03T01:43:27.465Z,6.62
2023-11-03T01:44:29.634Z,6.63
2023-11-03T01:45:31.755Z,6.64
2023-11-03T01:46:36.646Z,6.65
2023-11-03T01:47:38.809Z,6.65
2023-11-03T01:48:40.936Z,6.66
2023-11-03T01:49:43.175Z,6.67
2023-11-03T01:50:45.700Z,6.67
2023-11-03T01:51:48.139Z,6.70
2023-11-03T01:52:51.326Z,6.72
2023-11-03T01:53:53.627Z,6.72
2023-11-03T01:54:55.887Z,6.71
2023-11-03T01:55:58.588Z,6.73
2023-11-03T01:57:00.934Z,6.74
2023-11-03T01:58:03.051Z,6.76
2023-11-03T01:59:06.295Z,6.75
2023-11-03T02:00:09.830Z,6.77
2023-11-03T02:01:12.224Z,6.77
2023-11-03T02:02:14.786Z,6.76
2023-11-03T02:03:17.109Z,6.76
2023-11-03T02:04:20.088Z,6.74
2023-11-03T02:05:22.260Z,6.71
2023-11-03T02:06:24.683Z,6.71
2023-11-03T02:07:26.902Z,6.71
2023-11-03T02:08:29.186Z,6.68
2023-11-03T02:09:31.358Z,6.65
2023-11-03T02:10:33.731Z,6.63
2023-11-03T02:11:39.624Z,6.62
2023-11-03T02:12:41.870Z,6.59
2023-11-03T02:13:44.822Z,6.58
2023-11-03T02:14:46.937Z,6.52
2023-11-03T02:15:49.165Z,6.51
2023-11-03T02:16:51.618Z,6.49
2023-11-03T02:17:53.920Z,6.47
2023-11-03T02:18:56.459Z,6.46
2023-11-03T02:19:58.892Z,6.46
2023-11-03T02:21:01.080Z,6.45
2023-11-03T02:22:03.251Z,6.45
2023-11-03T02:23:05.485Z,6.45
2023-11-03T02:24:08.306Z,6.44
2023-11-03T02:25:10.612Z,6.45
2023-11-03T02:26:13.841Z,6.44
2023-11-03T02:27:15.919Z,6.42
2023-11-03T02:28:17.974Z,6.41
2023-11-03T02:29:20.026Z,6.39
2023-11-03T02:30:22.512Z,6.38
2023-11-03T02:31:24.623Z,6.37
2023-11-03T02:32:26.590Z,6.37
2023-11-03T02:33:28.797Z,6.37
2023-11-03T02:34:31.052Z,6.37
2023-11-03T02:35:33.019Z,6.36
2023-11-03T02:36:35.407Z,6.37
2023-11-03T02:37:37.605Z,6.36
2023-11-03T02:38:39.723Z,6.36
2023-11-03T02:39:42.268Z,6.36
2023-11-03T02:40:45.027Z,6.37
2023-11-03T02:41:46.969Z,6.37
2023-11-03T02:42:49.032Z,6.38
2023-11-03T02:43:51.073Z,6.39
2023-11-03T02:44:53.307Z,6.40
2023-11-03T02:45:55.556Z,6.41
2023-11-03T02:46:57.757Z,6.42
2023-11-03T02:47:59.886Z,6.43
2023-11-03T02:49:02.007Z,6.41
2023-11-03T02:50:05.708Z,6.42
2023-11-03T02:51:07.871Z,6.43
2023-11-03T02:52:09.994Z,6.42
2023-11-03T02:53:12.525Z,6.41
2023-11-03T02:54:14.628Z,6.43
2023-11-03T02:55:16.877Z,6.41
2023-11-03T02:56:26.313Z,6.43
2023-11-03T02:57:28.438Z,6.45
2023-11-03T02:58:37.915Z,6.44
2023-11-03T02:59:39.998Z,6.42
2023-11-03T03:00:42.708Z,6.40
2023-11-03T03:01:44.863Z,6.40
2023-11-03T03:02:46.982Z,6.39
2023-11-03T03:03:49.076Z,6.36
2023-11-03T03:04:51.229Z,6.33
2023-11-03T03:05:53.335Z,6.31
2023-11-03T03:06:55.677Z,6.27
2023-11-03T03:07:57.615Z,6.26
2023-11-03T03:08:59.675Z,6.26
2023-11-03T03:10:01.948Z,6.25
2023-11-03T03:11:04.113Z,6.26
2023-11-03T03:12:06.505Z,6.25
2023-11-03T03:13:08.832Z,6.25
2023-11-03T03:14:10.894Z,6.26
2023-11-03T03:15:12.869Z,6.27
2023-11-03T03:16:19.440Z,6.27
2023-11-03T03:17:22.538Z,6.27
2023-11-03T03:18:24.788Z,6.27
2023-11-03T03:19:26.887Z,6.29
2023-11-03T03:20:29.034Z,6.31
2023-11-03T03:21:31.167Z,6.30
2023-11-03T03:22:33.354Z,6.32
2023-11-03T03:23:35.432Z,6.30
2023-11-03T03:24:37.500Z,6.30
2023-11-03T03:25:39.877Z,6.30
2023-11-03T03:26:42.158Z,6.31
2023-11-03T03:27:44.389Z,6.31
2023-11-03T03:28:46.490Z,6.32
2023-11-03T03:29:48.535Z,6.34
2023-11-03T03:30:50.946Z,6.34
2023-11-03T03:31:53.198Z,6.35
2023-11-03T03:32:55.426Z,6.37
2023-11-03T03:33:58.140Z,6.37
2023-11-03T03:35:00.426Z,6.38
2023-11-03T03:36:02.757Z,6.38
2023-11-03T03:37:04.826Z,6.38
2023-11-03T03:38:06.911Z,6.38
2023-11-03T03:39:09.008Z,6.36
2023-11-03T03:40:14.792Z,6.36
2023-11-03T03:41:16.893Z,6.35
2023-11-03T03:42:19.102Z,6.32
2023-11-03T03:43:21.257Z,6.33
2023-11-03T03:44:23.473Z,6.31
2023-11-03T03:45:25.583Z,6.32
2023-11-03T03:46:28.543Z,6.32
2023-11-03T03:47:30.724Z,6.32
2023-11-03T03:48:32.969Z,6.31
2023-11-03T03:49:35.820Z,6.31
2023-11-03T03:50:38.135Z,6.31
2023-11-03T03:51:40.231Z,6.29
2023-11-03T03:52:42.225Z,6.29
2023-11-03T03:53:44.337Z,6.29
2023-11-03T03:54:46.418Z,6.28
2023-11-03T03:55:48.301Z,6.28
2023-11-03T03:56:50.520Z,6.28
2023-11-03T03:57:52.793Z,6.28
2023-11-03T03:58:54.900Z,6.28
2023-11-03T03:59:57.091Z,6.26
2023-11-03T04:00:59.191Z,6.27
2023-11-03T04:02:01.459Z,6.26
2023-11-03T04:03:03.657Z,6.26
2023-11-03T04:04:06.804Z,6.28
2023-11-03T04:05:09.174Z,6.25
2023-11-03T04:06:11.506Z,6.25
2023-11-03T04:07:13.635Z,6.25
2023-11-03T04:08:15.730Z,6.25
2023-11-03T04:09:17.777Z,6.24
2023-11-03T04:10:19.985Z,6.23
2023-11-03T04:11:22.130Z,6.24
2023-11-03T04:12:24.259Z,6.23
2023-11-03T04:13:26.479Z,6.22
2023-11-03T04:14:28.588Z,6.22
2023-11-03T04:15:30.623Z,6.20
2023-11-03T04:16:34.226Z,6.17
2023-11-03T04:17:36.398Z,6.13
2023-11-03T04:18:40.016Z,6.12
2023-11-03T04:19:42.364Z,6.11
2023-11-03T04:20:44.830Z,6.11
2023-11-03T04:21:46.896Z,6.10
2023-11-03T04:22:48.959Z,6.09
2023-11-03T04:23:51.064Z,6.07
2023-11-03T04:24:53.163Z,6.06
2023-11-03T04:25:55.274Z,6.04
2023-11-03T04:26:57.454Z,6.03
2023-11-03T04:27:59.546Z,6.04
2023-11-03T04:29:01.751Z,6.04
2023-11-03T04:30:04.672Z,6.05
2023-11-03T04:31:06.800Z,6.04
2023-11-03T04:32:08.890Z,6.03
2023-11-03T04:33:11.073Z,6.03
2023-11-03T04:34:13.337Z,6.01
2023-11-03T04:35:15.670Z,5.99
2023-11-03T04:36:17.961Z,5.98
2023-11-03T04:37:20.032Z,5.96
2023-11-03T04:38:22.071Z,5.95
2023-11-03T04:39:25.846Z,5.93
2023-11-03T04:40:28.298Z,5.91
2023-11-03T04:41:30.689Z,5.88
2023-11-03T04:42:32.798Z,5.88
2023-11-03T04:43:34.913Z,5.86
2023-11-03T04:44:37.175Z,5.85
2023-11-03T04:45:39.273Z,5.85
2023-11-03T04:46:41.671Z,5.86
2023-11-03T04:47:44.038Z,5.85
2023-11-03T04:48:46.212Z,5.86
2023-11-03T04:49:48.369Z,5.84
2023-11-03T04:50:50.799Z,5.85
2023-11-03T04:51:52.930Z,5.84
2023-11-03T04:52:55.055Z,5.81
2023-11-03T04:53:57.137Z,5.80
2023-11-03T04:54:59.254Z,5.79
2023-11-03T04:56:01.366Z,5.79
2023-11-03T04:57:03.488Z,5.80
2023-11-03T04:58:05.575Z,5.80
2023-11-03T04:59:07.610Z,5.80
2023-11-03T05:00:12.066Z,5.80
2023-11-03T05:01:14.409Z,5.82
2023-11-03T05:02:16.583Z,5.82
2023-11-03T05:03:18.714Z,5.79
2023-11-03T05:04:20.784Z,5.80
2023-11-03T05:05:23.027Z,5.79
2023-11-03T05:06:25.463Z,5.78
2023-11-03T05:07:27.504Z,5.75
2023-11-03T05:08:29.605Z,5.77
2023-11-03T05:09:31.719Z,5.77
2023-11-03T05:10:34.114Z,5.76
2023-11-03T05:11:36.555Z,5.78
2023-11-03T05:12:38.649Z,5.78
2023-11-03T05:13:40.763Z,5.75
2023-11-03T05:14:42.825Z,5.73
2023-11-03T05:15:44.928Z,5.75
2023-11-03T05:16:47.195Z,5.76
2023-11-03T05:17:49.400Z,5.76
2023-11-03T05:18:51.558Z,5.76
2023-11-03T05:19:53.664Z,5.77
2023-11-03T05:20:55.811Z,5.78
2023-11-03T05:21:57.978Z,5.78
2023-11-03T05:22:59.903Z,5.81
2023-11-03T05:24:02.693Z,5.78
2023-11-03T05:25:06.658Z,5.82
2023-11-03T05:27:39.268Z,6.01
2023-11-03T05:28:41.534Z,5.88
2023-11-03T05:29:43.649Z,5.90
2023-11-03T05:30:46.197Z,5.91
2023-11-03T05:31:48.698Z,5.91
2023-11-03T05:32:51.002Z,5.92
2023-11-03T05:33:53.137Z,5.92
2023-11-03T05:34:55.261Z,5.91
2023-11-03T05:35:58.305Z,5.90
2023-11-03T05:37:00.915Z,5.89
2023-11-03T05:38:04.365Z,5.91
2023-11-03T05:39:06.509Z,5.91
2023-11-03T05:40:10.814Z,5.89
2023-11-03T05:41:13.129Z,5.93
2023-11-03T05:42:15.277Z,5.94
2023-11-03T05:43:17.290Z,5.96
2023-11-03T05:44:19.402Z,6.02
2023-11-03T05:45:21.549Z,6.07
2023-11-03T05:46:24.222Z,6.10
2023-11-03T05:47:26.387Z,6.12
2023-11-03T05:48:29.486Z,6.16
2023-11-03T05:49:32.107Z,6.20
2023-11-03T05:50:34.720Z,6.23
2023-11-03T05:51:37.059Z,6.26
2023-11-03T05:52:39.264Z,6.29
2023-11-03T05:53:41.571Z,6.34
2023-11-03T05:54:43.546Z,6.35
2023-11-03T05:55:45.692Z,6.38
2023-11-03T05:56:48.319Z,6.40
2023-11-03T05:57:50.837Z,6.43
2023-11-03T05:58:52.958Z,6.47
2023-11-03T05:59:54.979Z,6.48
2023-11-03T06:00:57.716Z,6.50
2023-11-03T06:01:59.912Z,6.52
2023-11-03T06:03:02.127Z,6.55
2023-11-03T06:04:04.611Z,6.56
2023-11-03T06:05:08.170Z,6.61
2023-11-03T06:06:11.048Z,6.66
2023-11-03T06:07:13.434Z,6.69
2023-11-03T06:08:15.829Z,6.72
2023-11-03T06:09:17.938Z,6.75
2023-11-03T06:10:20.630Z,6.78
2023-11-03T06:11:22.927Z,6.81
2023-11-03T06:12:25.130Z,6.84
2023-11-03T06:13:27.534Z,6.87
2023-11-03T06:14:29.669Z,6.88
2023-11-03T06:15:31.880Z,6.90
2023-11-03T06:16:34.177Z,6.93
2023-11-03T06:17:36.406Z,6.96
2023-11-03T06:18:38.336Z,7.02
2023-11-03T06:19:40.527Z,7.03
2023-11-03T06:20:42.807Z,7.05
2023-11-03T06:21:45.089Z,7.06
2023-11-03T06:22:47.265Z,7.08
2023-11-03T06:23:49.433Z,7.11
2023-11-03T06:24:51.872Z,7.13
2023-11-03T06:25:53.988Z,7.15
2023-11-03T06:26:56.422Z,7.21
2023-11-03T06:27:58.681Z,7.24
2023-11-03T06:29:00.804Z,7.24
2023-11-03T06:30:03.924Z,7.27
2023-11-03T06:31:06.456Z,7.29
2023-11-03T06:32:08.808Z,7.32
2023-11-03T06:33:11.122Z,7.35
2023-11-03T06:34:13.284Z,7.38
2023-11-03T06:35:15.466Z,7.40
2023-11-03T06:36:17.657Z,7.42
2023-11-03T06:37:19.809Z,7.44
2023-11-03T06:38:21.911Z,7.47
2023-11-03T06:39:23.941Z,7.50
2023-11-03T06:40:26.607Z,7.54
2023-11-03T06:41:28.783Z,7.55
2023-11-03T06:42:30.808Z,7.56
2023-11-03T06:43:33.961Z,7.58
2023-11-03T06:44:36.095Z,7.59
2023-11-03T06:45:38.152Z,7.60
2023-11-03T06:46:40.860Z,7.62
2023-11-03T06:47:43.096Z,7.65
2023-11-03T06:48:45.499Z,7.69
2023-11-03T06:49:47.760Z,7.71
2023-11-03T06:50:50.149Z,7.74
2023-11-03T06:51:52.621Z,7.76
2023-11-03T06:52:55.342Z,7.80
2023-11-03T06:53:57.800Z,7.86
2023-11-03T06:55:00.025Z,7.89
2023-11-03T06:56:02.398Z,7.92
2023-11-03T06:57:05.697Z,7.96
2023-11-03T06:58:08.301Z,8.01
2023-11-03T06:59:10.647Z,8.03
2023-11-03T07:00:14.570Z,8.05
2023-11-03T07:01:16.866Z,8.07
2023-11-03T07:02:19.288Z,8.08
2023-11-03T07:03:21.476Z,8.08
2023-11-03T07:04:23.739Z,8.11
2023-11-03T07:05:25.682Z,8.14
2023-11-03T07:06:28.014Z,8.17
2023-11-03T07:07:30.136Z,8.17
2023-11-03T07:08:32.358Z,8.20
2023-11-03T07:09:34.478Z,8.23
2023-11-03T07:10:36.948Z,8.28
2023-11-03T07:11:39.158Z,8.32
2023-11-03T07:12:41.286Z,8.34
2023-11-03T07:13:50.806Z,8.38
2023-11-03T07:14:53.169Z,8.44
2023-11-03T07:15:55.681Z,8.48
2023-11-03T07:16:58.431Z,8.49
2023-11-03T07:18:00.582Z,8.51
2023-11-03T07:19:02.810Z,8.52
2023-11-03T07:20:06.382Z,8.58
2023-11-03T07:21:09.793Z,8.63
2023-11-03T07:22:12.142Z,8.67
2023-11-03T07:23:14.407Z,8.68
2023-11-03T07:24:17.030Z,8.74
2023-11-03T07:25:19.274Z,8.78
2023-11-03T07:26:21.474Z,8.79
2023-11-03T07:27:23.650Z,8.80
2023-11-03T07:28:26.705Z,8.83
2023-11-03T07:29:29.113Z,8.84
2023-11-03T07:30:31.368Z,8.86
2023-11-03T07:31:34.564Z,8.90
2023-11-03T07:32:37.304Z,8.95
2023-11-03T07:33:40.876Z,8.98
2023-11-03T07:34:43.522Z,9.01
2023-11-03T07:35:46.153Z,9.04
2023-11-03T07:36:48.512Z,9.07
2023-11-03T07:37:50.910Z,9.11
2023-11-03T07:38:53.086Z,9.14
2023-11-03T07:39:55.241Z,9.19
2023-11-03T07:40:57.524Z,9.24
2023-11-03T07:41:59.541Z,9.29
2023-11-03T07:43:01.761Z,9.32
2023-11-03T07:44:04.810Z,9.36
2023-11-03T07:45:08.457Z,9.43
2023-11-03T07:46:10.931Z,9.47
2023-11-03T07:47:13.216Z,9.51
2023-11-03T07:48:15.846Z,9.58
2023-11-03T07:49:18.060Z,9.63
2023-11-03T07:50:20.488Z,9.66
2023-11-03T07:51:22.698Z,9.70
2023-11-03T07:52:25.113Z,9.73
2023-11-03T07:53:27.297Z,9.79
2023-11-03T07:54:29.452Z,9.83
2023-11-03T07:55:31.596Z,9.86
2023-11-03T07:56:36.939Z,9.91
2023-11-03T07:57:39.304Z,9.94
2023-11-03T07:58:41.457Z,9.97
2023-11-03T07:59:43.505Z,9.99
2023-11-03T08:00:45.791Z,10.03
2023-11-03T08:01:50.801Z,10.05
2023-11-03T08:02:53.042Z,10.11
2023-11-03T08:03:55.443Z,10.15
2023-11-03T08:04:57.804Z,10.19
2023-11-03T08:06:00.020Z,10.22
2023-11-03T08:07:02.366Z,10.24
2023-11-03T08:08:04.821Z,10.29
2023-11-03T08:09:06.999Z,10.33
2023-11-03T08:10:10.084Z,10.36
2023-11-03T08:11:12.596Z,10.42
2023-11-03T08:12:14.834Z,10.50
2023-11-03T08:13:16.983Z,10.54
2023-11-03T08:14:19.205Z,10.56
2023-11-03T08:15:21.320Z,10.58
2023-11-03T08:16:23.947Z,10.61
2023-11-03T08:17:26.069Z,10.62
2023-11-03T08:18:28.360Z,10.66
2023-11-03T08:19:30.652Z,10.68
2023-11-03T08:20:33.066Z,10.74
2023-11-03T08:21:35.504Z,10.77
2023-11-03T08:22:37.895Z,10.79
2023-11-03T08:23:40.024Z,10.81
2023-11-03T08:24:42.391Z,10.80
2023-11-03T08:25:44.694Z,10.83
2023-11-03T08:26:47.005Z,10.86
2023-11-03T08:27:49.167Z,10.88
2023-11-03T08:28:51.843Z,10.91
2023-11-03T08:29:53.916Z,10.94
2023-11-03T08:30:58.085Z,10.95
2023-11-03T08:32:02.029Z,10.95
2023-11-03T08:33:04.285Z,10.99
2023-11-03T08:34:06.637Z,11.01
2023-11-03T08:35:08.871Z,11.07
2023-11-03T08:36:11.194Z,11.10
2023-11-03T08:37:13.581Z,11.15
2023-11-03T08:38:15.823Z,11.18
2023-11-03T08:39:24.377Z,11.22
2023-11-03T08:40:22.911Z,11.25
2023-11-03T08:41:25.086Z,11.31
2023-11-03T08:42:27.186Z,11.33
2023-11-03T08:43:29.401Z,11.37
2023-11-03T08:44:34.367Z,11.39
2023-11-03T08:45:39.849Z,11.38
2023-11-03T08:46:42.088Z,11.40
2023-11-03T08:47:44.287Z,11.45
2023-11-03T08:48:47.494Z,11.45
2023-11-03T08:49:49.592Z,11.44
2023-11-03T08:50:51.944Z,11.45
2023-11-03T08:51:54.210Z,11.44
2023-11-03T08:52:56.537Z,11.45
2023-11-03T08:53:58.721Z,11.46
2023-11-03T08:55:00.921Z,11.48
2023-11-03T08:56:03.420Z,11.50
2023-11-03T08:57:05.512Z,11.51
2023-11-03T08:58:15.614Z,11.52
2023-11-03T08:59:13.112Z,11.54
2023-11-03T09:00:15.841Z,11.54
2023-11-03T09:01:18.051Z,11.55
2023-11-03T09:02:22.590Z,11.56
2023-11-03T09:03:32.413Z,11.58
2023-11-03T09:04:35.017Z,11.57
2023-11-03T09:05:37.239Z,11.60
2023-11-03T09:06:39.641Z,11.62
2023-11-03T09:07:43.011Z,11.63
2023-11-03T09:08:45.205Z,11.65
2023-11-03T09:09:47.472Z,11.68
2023-11-03T09:10:49.711Z,11.70
2023-11-03T09:11:51.915Z,11.73
2023-11-03T09:12:54.063Z,11.77
2023-11-03T09:13:56.114Z,11.81
2023-11-03T09:14:58.283Z,11.85
2023-11-03T09:16:00.476Z,11.89
2023-11-03T09:17:02.633Z,11.91
2023-11-03T09:18:04.936Z,11.93
2023-11-03T09:19:07.117Z,11.94
2023-11-03T09:20:10.865Z,11.93
2023-11-03T09:21:13.739Z,11.95
2023-11-03T09:22:23.145Z,11.98
2023-11-03T09:23:23.695Z,12.01
2023-11-03T09:24:25.938Z,12.01
2023-11-03T09:25:28.376Z,12.03
2023-11-03T09:26:30.659Z,12.03
2023-11-03T09:27:32.855Z,12.04
2023-11-03T09:28:35.031Z,12.05
2023-11-03T09:29:37.205Z,12.10
2023-11-03T09:30:39.570Z,12.11
2023-11-03T09:31:41.693Z,12.10
2023-11-03T09:32:44.110Z,12.11
2023-11-03T09:33:46.601Z,12.14
2023-11-03T09:34:51.166Z,12.14
2023-11-03T09:35:53.520Z,12.16
2023-11-03T09:36:55.848Z,12.19
2023-11-03T09:37:58.292Z,12.21
2023-11-03T09:39:00.566Z,12.19
2023-11-03T09:40:03.084Z,12.18
2023-11-03T09:41:07.379Z,12.17
2023-11-03T09:42:11.493Z,12.16
2023-11-03T09:43:13.829Z,12.14
2023-11-03T09:44:16.075Z,12.12
2023-11-03T09:45:19.005Z,12.10
2023-11-03T09:46:21.407Z,12.11
2023-11-03T09:47:24.856Z,12.11
2023-11-03T09:48:28.874Z,12.11
2023-11-03T09:49:31.672Z,12.11
2023-11-03T09:50:34.275Z,12.13
2023-11-03T09:51:38.083Z,12.12
2023-11-03T09:52:47.322Z,12.14
2023-11-03T09:53:52.066Z,12.13
2023-11-03T09:54:54.976Z,12.16
2023-11-03T09:55:58.073Z,12.18
2023-11-03T09:58:12.517Z,12.35
2023-11-03T09:59:14.941Z,12.24
2023-11-03T10:00:20.316Z,12.28
2023-11-03T10:01:22.722Z,12.30
2023-11-03T10:02:26.190Z,12.32
2023-11-03T10:03:28.459Z,12.38
2023-11-03T10:04:30.829Z,12.43
2023-11-03T10:05:33.004Z,12.46
2023-11-03T10:06:36.709Z,12.49
2023-11-03T10:07:39.084Z,12.52
2023-11-03T10:08:42.035Z,12.54
2023-11-03T10:09:44.247Z,12.55
2023-11-03T10:10:46.949Z,12.57
2023-11-03T10:11:49.062Z,12.62
2023-11-03T10:12:51.365Z,12.63
2023-11-03T10:13:55.399Z,12.65
2023-11-03T10:14:57.551Z,12.67
2023-11-03T10:15:59.833Z,12.71
2023-11-03T10:17:02.077Z,12.75
2023-11-03T10:18:04.508Z,12.77
2023-11-03T10:19:07.175Z,12.79
2023-11-03T10:20:10.461Z,12.79
2023-11-03T10:21:12.486Z,12.81
2023-11-03T10:22:14.702Z,12.84
2023-11-03T10:23:17.188Z,12.88
2023-11-03T10:24:19.400Z,12.93
2023-11-03T10:25:21.547Z,12.92
2023-11-03T10:26:23.851Z,12.85
2023-11-03T10:27:26.176Z,12.84
2023-11-03T10:28:30.285Z,12.82
2023-11-03T10:29:32.625Z,12.81
2023-11-03T10:30:34.918Z,12.80
2023-11-03T10:31:37.034Z,12.82
2023-11-03T10:32:39.451Z,12.82
2023-11-03T10:33:42.473Z,12.83
2023-11-03T10:34:46.067Z,12.81
2023-11-03T10:35:48.868Z,12.78
2023-11-03T10:36:54.917Z,12.75
2023-11-03T10:37:59.761Z,12.73
2023-11-03T10:39:05.116Z,12.70
2023-11-03T10:40:09.357Z,12.69
2023-11-03T10:41:12.132Z,12.68
2023-11-03T10:42:16.093Z,12.68
2023-11-03T10:43:20.295Z,12.70
2023-11-03T10:44:24.353Z,12.73
2023-11-03T10:45:29.619Z,12.77
2023-11-03T10:46:37.343Z,12.81
2023-11-03T10:49:27.779Z,13.04
2023-11-03T10:50:35.323Z,12.92
2023-11-03T10:51:40.234Z,12.98
2023-11-03T10:54:28.579Z,13.04
2023-11-03T10:55:34.807Z,12.90
2023-11-03T10:56:56.066Z,12.90
2023-11-03T10:57:42.851Z,12.90
2023-11-03T10:58:45.657Z,12.92
2023-11-03T10:59:50.392Z,12.93
2023-11-03T11:01:04.831Z,12.97
2023-11-03T11:02:14.096Z,13.02
2023-11-03T11:03:28.190Z,13.02
2023-11-03T11:04:53.921Z,13.03
2023-11-03T11:06:02.306Z,13.03
2023-11-03T11:07:07.732Z,13.03
2023-11-03T11:08:10.808Z,13.01
2023-11-03T11:10:38.217Z,13.08
2023-11-03T11:11:40.508Z,12.99
2023-11-03T11:12:49.433Z,13.01
2023-11-03T11:13:51.839Z,13.06
2023-11-03T11:14:54.077Z,13.10
2023-11-03T11:16:00.202Z,13.13
2023-11-03T11:17:02.774Z,13.17
2023-11-03T11:18:18.883Z,13.19
2023-11-03T11:20:38.404Z,13.30
2023-11-03T11:21:38.653Z,13.18
2023-11-03T11:23:52.821Z,13.39
2023-11-03T11:24:56.010Z,13.33
2023-11-03T11:26:02.970Z,13.38
2023-11-03T11:28:35.666Z,13.55
2023-11-03T11:29:38.197Z,13.42
2023-11-03T11:30:40.472Z,13.48
2023-11-03T11:31:43.623Z,13.49
2023-11-03T11:34:02.079Z,13.65
2023-11-03T11:36:20.703Z,13.64
2023-11-03T11:37:28.160Z,13.49
2023-11-03T11:38:30.496Z,13.47
2023-11-03T11:39:32.730Z,13.40
2023-11-03T11:40:35.115Z,13.35
2023-11-03T11:41:38.325Z,13.29
2023-11-03T11:42:42.321Z,13.24
2023-11-03T11:43:47.152Z,13.19
2023-11-03T11:44:51.298Z,13.17
2023-11-03T11:45:55.197Z,13.16
2023-11-03T11:46:59.666Z,13.17
2023-11-03T11:48:04.777Z,13.21
2023-11-03T11:49:10.862Z,13.25
2023-11-03T11:50:18.219Z,13.29
2023-11-03T11:51:20.539Z,13.29
2023-11-03T11:52:24.436Z,13.27
2023-11-03T11:53:26.715Z,13.31
2023-11-03T11:54:28.839Z,13.33
2023-11-03T11:55:34.672Z,13.30
2023-11-03T11:56:37.059Z,13.25
2023-11-03T11:57:40.641Z,13.16
2023-11-03T11:58:43.380Z,13.10
2023-11-03T11:59:45.544Z,13.08
2023-11-03T12:00:48.085Z,13.03
2023-11-03T12:01:52.267Z,13.00
2023-11-03T12:02:54.707Z,12.97
2023-11-03T12:04:03.415Z,12.91
2023-11-03T12:05:06.306Z,12.90
2023-11-03T12:06:09.141Z,12.92
2023-11-03T12:07:11.488Z,12.90
2023-11-03T12:08:13.592Z,12.90
2023-11-03T12:09:15.925Z,12.87
2023-11-03T12:10:18.630Z,12.84
2023-11-03T12:11:21.266Z,12.79
2023-11-03T12:12:26.988Z,12.74
2023-11-03T12:13:30.916Z,12.73
2023-11-03T12:14:33.168Z,12.69
2023-11-03T12:15:35.354Z,12.64
2023-11-03T12:16:38.263Z,12.63
2023-11-03T12:17:40.634Z,12.62
2023-11-03T12:18:42.792Z,12.62
2023-11-03T12:19:44.920Z,12.64
2023-11-03T12:21:00.772Z,12.65
2023-11-03T12:22:02.902Z,12.64
2023-11-03T12:23:04.986Z,12.63
2023-11-03T12:24:07.805Z,12.60
2023-11-03T12:25:10.030Z,12.60
2023-11-03T12:26:13.282Z,12.61
2023-11-03T12:27:28.733Z,12.61
2023-11-03T12:28:31.787Z,12.59
2023-11-03T12:29:33.937Z,12.59
2023-11-03T12:32:01.231Z,12.66
2023-11-03T12:33:03.832Z,12.51
2023-11-03T12:34:06.192Z,12.51
2023-11-03T12:35:08.944Z,12.54
2023-11-03T12:36:11.841Z,12.53
2023-11-03T12:37:14.159Z,12.54
2023-11-03T12:38:17.052Z,12.53
2023-11-03T12:39:19.339Z,12.52
2023-11-03T12:40:22.559Z,12.49
2023-11-03T12:41:25.200Z,12.47
2023-11-03T12:42:27.650Z,12.45
2023-11-03T12:43:29.901Z,12.41
2023-11-03T12:44:49.659Z,12.40
2023-11-03T12:45:55.581Z,12.41
2023-11-03T12:46:58.532Z,12.42
2023-11-03T12:48:00.801Z,12.40
2023-11-03T12:50:45.667Z,12.47
2023-11-03T12:51:48.361Z,12.32
2023-11-03T12:53:02.606Z,12.30
2023-11-03T12:54:04.973Z,12.30
2023-11-03T12:55:11.026Z,12.31
2023-11-03T12:56:15.396Z,12.32
2023-11-03T12:57:22.025Z,12.33
2023-11-03T12:58:28.872Z,12.36
2023-11-03T12:59:29.998Z,12.39
2023-11-03T13:02:57.225Z,12.50
2023-11-03T13:03:59.775Z,12.39
2023-11-03T13:05:05.377Z,12.39
2023-11-03T13:07:28.667Z,12.53
2023-11-03T13:08:31.186Z,12.44
2023-11-03T13:09:33.343Z,12.46
2023-11-03T13:10:35.742Z,12.51
2023-11-03T13:11:37.788Z,12.54
2023-11-03T13:12:40.189Z,12.55
2023-11-03T13:13:42.262Z,12.57
2023-11-03T13:14:44.426Z,12.59
2023-11-03T13:15:46.714Z,12.59
2023-11-03T13:16:49.454Z,12.59
2023-11-03T13:17:51.759Z,12.58
2023-11-03T13:18:53.942Z,12.57
2023-11-03T13:19:56.045Z,12.54
2023-11-03T13:20:58.776Z,12.53
2023-11-03T13:22:00.881Z,12.51
2023-11-03T13:23:02.882Z,12.48
2023-11-03T13:24:06.985Z,12.44
2023-11-03T13:25:09.171Z,12.44
2023-11-03T13:26:11.689Z,12.42
2023-11-03T13:27:13.756Z,12.40
2023-11-03T13:28:16.054Z,12.39
2023-11-03T13:29:18.228Z,12.36
2023-11-03T13:30:20.509Z,12.33
2023-11-03T13:31:22.803Z,12.33
2023-11-03T13:32:25.114Z,12.32
2023-11-03T13:33:27.278Z,12.30
2023-11-03T13:34:29.721Z,12.30
2023-11-03T13:35:32.285Z,12.25
2023-11-03T13:36:34.634Z,12.23
2023-11-03T13:37:37.810Z,12.22
2023-11-03T13:38:39.949Z,12.18
2023-11-03T13:39:42.343Z,12.16
2023-11-03T13:40:44.697Z,12.12
2023-11-03T13:41:47.070Z,12.09
2023-11-03T13:42:49.236Z,12.06
2023-11-03T13:43:51.374Z,11.99
2023-11-03T13:44:53.463Z,11.93
2023-11-03T13:45:56.638Z,11.85
2023-11-03T13:47:01.995Z,11.80
2023-11-03T13:48:05.900Z,11.75
2023-11-03T13:49:08.298Z,11.69
2023-11-03T13:50:17.987Z,11.70
2023-11-03T13:51:14.679Z,11.68
2023-11-03T13:52:16.930Z,11.69
2023-11-03T13:53:19.093Z,11.69
2023-11-03T13:54:21.225Z,11.68
2023-11-03T13:55:23.736Z,11.68
2023-11-03T13:56:26.136Z,11.69
2023-11-03T13:57:28.191Z,11.66
2023-11-03T13:58:30.343Z,11.65
2023-11-03T13:59:32.502Z,11.64
2023-11-03T14:00:34.738Z,11.62
2023-11-03T14:01:37.217Z,11.62
2023-11-03T14:02:40.115Z,11.61
2023-11-03T14:03:42.322Z,11.59
2023-11-03T14:04:45.433Z,11.55
2023-11-03T14:05:47.609Z,11.53